Alaska Titan — WDE4789 — position and weather

sailwx.info

Track history (hours):
 
Tides and Currents Weather Stations Pressure Air Temp Water Temp Dewpoint Dewpoint Depression Visibility Wind Speed Wind Dir Waves Ship Positions

Alaska Titan

Owner: WESTERN TOWBOAT CO, Seattle, WA. More information available from US FCC via Universal Licensing System and Coast Guard Vessel Documentation Center.

Last reported at 2017-Oct-18 03:30 UTC. Time now 2017-Oct-18 04:00 UTC.
Position N 54°05' W 130°20'.

Length 40 m; draft 6 m.

Type: Tow > 200 m length. MMSI: 367357890.

Date/timePositionNaut miles runAvg speedWind from/ knotsBaromVisibWave heightAir tempDewpointWater temp
2017-Oct-18 03:30N 54°05' W 130°20'4 8.8
2017-Oct-18 03:00N 54°09' W 130°24'4 8.2
2017-Oct-18 02:30N 54°12' W 130°28'4 8.3
2017-Oct-18 02:00N 54°16' W 130°32'4 8.7
2017-Oct-18 01:30N 54°20' W 130°36'5 9.1
2017-Oct-18 01:00N 54°24' W 130°38'5 9.1
2017-Oct-18 00:29N 54°28' W 130°41'273 7.4
2017-Oct-16 11:33N 58°12' W 135°23'1 9.5
2017-Oct-16 11:25N 58°13' W 135°25'5 9.1
2017-Oct-16 10:51N 58°15' W 135°34'3 9.0
2017-Oct-16 10:29N 58°16' W 135°39'4 8.9
2017-Oct-16 10:00N 58°18' W 135°47'4 7.6
2017-Oct-16 09:30N 58°17' W 135°54'4 8.1
2017-Oct-16 09:00N 58°16' W 136°01'119 8.0
2017-Oct-15 18:00N 59°12' W 139°24'91 7.5 260 / 20997.4 5.4 7.2
2017-Oct-15 06:00N 59°30' W 142°18'96 8.0 060 / 25999.0 5.4 7.2
2017-Oct-14 18:00N 59°48' W 145°24'   140 / 121009.510.8 10.0
2017-Oct-11 06:00N 59°18' W 141°30'98 8.2 280 / 81021.010.8 10.0
2017-Oct-10 18:00N 58°54' W 138°24'46 7.6 310 / 61024.027.0 10.0
2017-Oct-10 12:00N 58°24' W 137°18'31 6.0 1023.4 11.1
2017-Oct-10 06:47N 58°17' W 136°19'3 9.8
2017-Oct-10 06:30N 58°17' W 136°15'5 9.2
2017-Oct-10 06:00N 58°15' W 136°06'5 9.1
2017-Oct-10 05:30N 58°16' W 135°58'4 8.9
2017-Oct-10 05:00N 58°18' W 135°50'4 8.1
2017-Oct-10 04:30N 58°17' W 135°43'4 6.4
2017-Oct-10 03:55N 58°16' W 135°36'2 3.2
2017-Oct-10 03:27N 58°14' W 135°34'2 4.3
2017-Oct-10 02:58N 58°15' W 135°38'2 4.5
2017-Oct-10 02:30N 58°16' W 135°41'2 3.9
2017-Oct-10 02:00N 58°17' W 135°44'1 2.7
2017-Oct-10 01:30N 58°19' W 135°45'3 6.0
2017-Oct-10 01:00N 58°17' W 135°39'3 5.6
2017-Oct-10 00:30N 58°16' W 135°35'4 5.2
2017-Oct-09 23:48N 58°15' W 135°28'2 5.2
2017-Oct-09 23:28N 58°15' W 135°25'4 2.8
2017-Oct-09 21:58N 58°14' W 135°32'3 5.4
2017-Oct-09 21:28N 58°15' W 135°37'2 5.4
2017-Oct-09 21:00N 58°16' W 135°41'3 5.2
2017-Oct-09 20:30N 58°17' W 135°45'1 2.5
2017-Oct-09 20:00N 58°19' W 135°45'2 4.5
2017-Oct-09 19:30N 58°18' W 135°41'3 4.7
2017-Oct-09 18:57N 58°17' W 135°37'2 4.4
2017-Oct-09 18:30N 58°16' W 135°33'3 4.8
2017-Oct-09 17:54N 58°15' W 135°28'2 4.5
2017-Oct-09 17:29N 58°13' W 135°26'3 4.5
2017-Oct-09 16:53N 58°14' W 135°31'3 4.6
2017-Oct-09 16:14N 58°14' W 135°36'1 4.5
2017-Oct-09 15:59N 58°15' W 135°38'2 5.0
2017-Oct-09 15:30N 58°16' W 135°42'2 4.0
2017-Oct-09 15:00N 58°17' W 135°45'2 3.2
2017-Oct-09 14:30N 58°19' W 135°47'2 4.6
2017-Oct-09 14:00N 58°18' W 135°43'4 6.4
2017-Oct-09 13:27N 58°17' W 135°37'3 5.6
2017-Oct-09 13:00N 58°16' W 135°33'3 5.2
2017-Oct-09 12:28N 58°15' W 135°27'  
Track history (hours):
 
Tides and Currents Weather Stations Pressure Air Temp Water Temp Dewpoint Dewpoint Depression Visibility Wind Speed Wind Dir Waves Ship Positions

Alaska Titan

Owner: WESTERN TOWBOAT CO, Seattle, WA. More information available from US FCC via Universal Licensing System and Coast Guard Vessel Documentation Center.

Last reported at 2017-Oct-18 03:30 UTC. Time now 2017-Oct-18 04:00 UTC.
Position N 54°05' W 130°20'.

Length 40 m; draft 6 m.

Type: Tow > 200 m length. MMSI: 367357890.

Date/timePositionNaut miles runAvg speedWind from/ knotsBaromVisibWave heightAir tempDewpointWater temp
2017-Oct-18 03:30N 54°05' W 130°20'4 8.8
2017-Oct-18 03:00N 54°09' W 130°24'4 8.2
2017-Oct-18 02:30N 54°12' W 130°28'4 8.3
2017-Oct-18 02:00N 54°16' W 130°32'4 8.7
2017-Oct-18 01:30N 54°20' W 130°36'5 9.1
2017-Oct-18 01:00N 54°24' W 130°38'5 9.1
2017-Oct-18 00:29N 54°28' W 130°41'273 7.4
2017-Oct-16 11:33N 58°12' W 135°23'1 9.5
2017-Oct-16 11:25N 58°13' W 135°25'5 9.1
2017-Oct-16 10:51N 58°15' W 135°34'3 9.0
2017-Oct-16 10:29N 58°16' W 135°39'4 8.9
2017-Oct-16 10:00N 58°18' W 135°47'4 7.6
2017-Oct-16 09:30N 58°17' W 135°54'4 8.1
2017-Oct-16 09:00N 58°16' W 136°01'119 8.0
2017-Oct-15 18:00N 59°12' W 139°24'91 7.5 260 / 20997.4 5.4 7.2
2017-Oct-15 06:00N 59°30' W 142°18'96 8.0 060 / 25999.0 5.4 7.2
2017-Oct-14 18:00N 59°48' W 145°24'   140 / 121009.510.8 10.0
2017-Oct-11 06:00N 59°18' W 141°30'98 8.2 280 / 81021.010.8 10.0
2017-Oct-10 18:00N 58°54' W 138°24'46 7.6 310 / 61024.027.0 10.0
2017-Oct-10 12:00N 58°24' W 137°18'31 6.0 1023.4 11.1
2017-Oct-10 06:47N 58°17' W 136°19'3 9.8
2017-Oct-10 06:30N 58°17' W 136°15'5 9.2
2017-Oct-10 06:00N 58°15' W 136°06'5 9.1
2017-Oct-10 05:30N 58°16' W 135°58'4 8.9
2017-Oct-10 05:00N 58°18' W 135°50'4 8.1
2017-Oct-10 04:30N 58°17' W 135°43'4 6.4
2017-Oct-10 03:55N 58°16' W 135°36'2 3.2
2017-Oct-10 03:27N 58°14' W 135°34'2 4.3
2017-Oct-10 02:58N 58°15' W 135°38'2 4.5
2017-Oct-10 02:30N 58°16' W 135°41'2 3.9
2017-Oct-10 02:00N 58°17' W 135°44'1 2.7
2017-Oct-10 01:30N 58°19' W 135°45'3 6.0
2017-Oct-10 01:00N 58°17' W 135°39'3 5.6
2017-Oct-10 00:30N 58°16' W 135°35'4 5.2
2017-Oct-09 23:48N 58°15' W 135°28'2 5.2
2017-Oct-09 23:28N 58°15' W 135°25'4 2.8
2017-Oct-09 21:58N 58°14' W 135°32'3 5.4
2017-Oct-09 21:28N 58°15' W 135°37'2 5.4
2017-Oct-09 21:00N 58°16' W 135°41'3 5.2
2017-Oct-09 20:30N 58°17' W 135°45'1 2.5
2017-Oct-09 20:00N 58°19' W 135°45'2 4.5
2017-Oct-09 19:30N 58°18' W 135°41'3 4.7
2017-Oct-09 18:57N 58°17' W 135°37'2 4.4
2017-Oct-09 18:30N 58°16' W 135°33'3 4.8
2017-Oct-09 17:54N 58°15' W 135°28'2 4.5
2017-Oct-09 17:29N 58°13' W 135°26'3 4.5
2017-Oct-09 16:53N 58°14' W 135°31'3 4.6
2017-Oct-09 16:14N 58°14' W 135°36'1 4.5
2017-Oct-09 15:59N 58°15' W 135°38'2 5.0
2017-Oct-09 15:30N 58°16' W 135°42'2 4.0
2017-Oct-09 15:00N 58°17' W 135°45'2 3.2
2017-Oct-09 14:30N 58°19' W 135°47'2 4.6
2017-Oct-09 14:00N 58°18' W 135°43'4 6.4
2017-Oct-09 13:27N 58°17' W 135°37'3 5.6
2017-Oct-09 13:00N 58°16' W 135°33'3 5.2
2017-Oct-09 12:28N 58°15' W 135°27'  

Dump ship's entire track history